sensor_id;sensor_type;location;lat;lon;timestamp;pressure;altitude;pressure_sealevel;temperature;humidity
64080;BME280;51042;49.696;10.808;2023-07-20T00:00:26;98135.06;;;18.21;100.00
64080;BME280;51042;49.696;10.808;2023-07-20T00:02:52;98131.28;;;18.24;100.00
64080;BME280;51042;49.696;10.808;2023-07-20T00:05:17;98129.00;;;18.22;100.00
64080;BME280;51042;49.696;10.808;2023-07-20T00:07:43;98129.69;;;18.17;100.00
64080;BME280;51042;49.696;10.808;2023-07-20T00:10:09;98124.88;;;18.12;100.00
64080;BME280;51042;49.696;10.808;2023-07-20T00:12:34;98121.28;;;18.06;100.00
64080;BME280;51042;49.696;10.808;2023-07-20T00:15:00;98126.31;;;18.02;100.00
64080;BME280;51042;49.696;10.808;2023-07-20T00:17:25;98125.25;;;18.00;100.00
64080;BME280;51042;49.696;10.808;2023-07-20T00:19:51;98130.00;;;17.93;100.00
64080;BME280;51042;49.696;10.808;2023-07-20T00:22:16;98126.69;;;17.89;100.00
64080;BME280;51042;49.696;10.808;2023-07-20T00:24:41;98122.91;;;17.87;100.00
64080;BME280;51042;49.696;10.808;2023-07-20T00:27:06;98125.13;;;17.83;100.00
64080;BME280;51042;49.696;10.808;2023-07-20T00:29:32;98131.38;;;17.78;100.00
64080;BME280;51042;49.696;10.808;2023-07-20T00:31:58;98128.56;;;17.72;100.00
64080;BME280;51042;49.696;10.808;2023-07-20T00:34:23;98126.00;;;17.69;100.00
64080;BME280;51042;49.696;10.808;2023-07-20T00:36:49;98114.63;;;17.67;100.00
64080;BME280;51042;49.696;10.808;2023-07-20T00:39:15;98125.72;;;17.67;100.00
64080;BME280;51042;49.696;10.808;2023-07-20T00:41:40;98118.28;;;17.58;100.00
64080;BME280;51042;49.696;10.808;2023-07-20T00:44:05;98114.44;;;17.50;100.00
64080;BME280;51042;49.696;10.808;2023-07-20T00:46:31;98109.34;;;17.48;100.00
64080;BME280;51042;49.696;10.808;2023-07-20T00:48:57;98109.31;;;17.43;100.00
64080;BME280;51042;49.696;10.808;2023-07-20T00:51:24;98113.13;;;17.45;100.00
64080;BME280;51042;49.696;10.808;2023-07-20T00:53:51;98133.50;;;17.42;100.00
64080;BME280;51042;49.696;10.808;2023-07-20T00:56:16;98127.41;;;17.38;100.00
64080;BME280;51042;49.696;10.808;2023-07-20T00:58:41;98130.38;;;17.35;100.00
64080;BME280;51042;49.696;10.808;2023-07-20T01:01:07;98128.88;;;17.34;100.00
64080;BME280;51042;49.696;10.808;2023-07-20T01:03:32;98136.94;;;17.32;100.00
64080;BME280;51042;49.696;10.808;2023-07-20T01:06:01;98125.34;;;17.33;100.00
64080;BME280;51042;49.696;10.808;2023-07-20T01:11:53;98122.13;;;17.40;100.00
64080;BME280;51042;49.696;10.808;2023-07-20T01:14:28;98137.34;;;17.45;100.00
64080;BME280;51042;49.696;10.808;2023-07-20T01:16:54;98136.63;;;17.50;100.00
64080;BME280;51042;49.696;10.808;2023-07-20T01:19:20;98132.84;;;17.53;100.00
64080;BME280;51042;49.696;10.808;2023-07-20T01:21:48;98132.91;;;17.59;100.00
64080;BME280;51042;49.696;10.808;2023-07-20T01:27:36;98135.63;;;17.73;100.00
64080;BME280;51042;49.696;10.808;2023-07-20T01:33:00;98128.41;;;17.81;100.00
64080;BME280;51042;49.696;10.808;2023-07-20T01:35:28;98144.06;;;17.84;100.00
64080;BME280;51042;49.696;10.808;2023-07-20T01:37:55;98149.63;;;17.84;100.00
64080;BME280;51042;49.696;10.808;2023-07-20T01:40:22;98151.91;;;17.86;100.00
64080;BME280;51042;49.696;10.808;2023-07-20T01:42:50;98147.88;;;17.87;100.00
64080;BME280;51042;49.696;10.808;2023-07-20T01:45:16;98142.75;;;17.80;100.00
64080;BME280;51042;49.696;10.808;2023-07-20T01:47:42;98137.94;;;17.75;100.00
64080;BME280;51042;49.696;10.808;2023-07-20T01:50:07;98138.34;;;17.68;100.00
64080;BME280;51042;49.696;10.808;2023-07-20T01:52:33;98142.09;;;17.65;100.00
64080;BME280;51042;49.696;10.808;2023-07-20T01:54:59;98147.38;;;17.63;100.00
64080;BME280;51042;49.696;10.808;2023-07-20T01:57:24;98143.84;;;17.62;100.00
64080;BME280;51042;49.696;10.808;2023-07-20T01:59:49;98151.09;;;17.60;100.00
64080;BME280;51042;49.696;10.808;2023-07-20T02:02:14;98153.63;;;17.58;100.00
64080;BME280;51042;49.696;10.808;2023-07-20T02:04:40;98155.81;;;17.53;100.00
64080;BME280;51042;49.696;10.808;2023-07-20T02:07:05;98164.84;;;17.48;100.00
64080;BME280;51042;49.696;10.808;2023-07-20T02:09:30;98162.56;;;17.47;100.00
64080;BME280;51042;49.696;10.808;2023-07-20T02:11:56;98155.22;;;17.44;100.00
64080;BME280;51042;49.696;10.808;2023-07-20T02:14:21;98162.78;;;17.43;100.00
64080;BME280;51042;49.696;10.808;2023-07-20T02:16:47;98162.44;;;17.36;100.00
64080;BME280;51042;49.696;10.808;2023-07-20T02:19:17;98165.38;;;17.27;100.00
64080;BME280;51042;49.696;10.808;2023-07-20T02:21:43;98165.84;;;17.25;100.00
64080;BME280;51042;49.696;10.808;2023-07-20T02:24:08;98168.06;;;17.21;100.00
64080;BME280;51042;49.696;10.808;2023-07-20T02:26:33;98165.00;;;17.19;100.00
64080;BME280;51042;49.696;10.808;2023-07-20T02:28:58;98169.50;;;17.17;100.00
64080;BME280;51042;49.696;10.808;2023-07-20T02:31:24;98165.88;;;17.10;100.00
64080;BME280;51042;49.696;10.808;2023-07-20T02:33:49;98164.81;;;17.02;100.00
64080;BME280;51042;49.696;10.808;2023-07-20T02:36:14;98159.19;;;16.97;100.00
64080;BME280;51042;49.696;10.808;2023-07-20T02:38:41;98163.88;;;16.91;100.00
64080;BME280;51042;49.696;10.808;2023-07-20T02:41:07;98167.53;;;16.82;100.00
64080;BME280;51042;49.696;10.808;2023-07-20T02:43:32;98173.00;;;16.77;100.00
64080;BME280;51042;49.696;10.808;2023-07-20T02:45:57;98166.13;;;16.72;100.00
64080;BME280;51042;49.696;10.808;2023-07-20T02:48:23;98182.22;;;16.68;100.00
64080;BME280;51042;49.696;10.808;2023-07-20T02:50:48;98168.34;;;16.68;100.00
64080;BME280;51042;49.696;10.808;2023-07-20T02:53:13;98188.50;;;16.68;100.00
64080;BME280;51042;49.696;10.808;2023-07-20T02:55:38;98187.06;;;16.73;100.00
64080;BME280;51042;49.696;10.808;2023-07-20T02:58:04;98181.59;;;16.79;100.00
64080;BME280;51042;49.696;10.808;2023-07-20T03:00:29;98183.22;;;16.85;100.00
64080;BME280;51042;49.696;10.808;2023-07-20T03:02:54;98187.84;;;16.94;100.00
64080;BME280;51042;49.696;10.808;2023-07-20T03:05:21;98195.00;;;17.00;100.00
64080;BME280;51042;49.696;10.808;2023-07-20T03:07:48;98180.19;;;17.03;100.00
64080;BME280;51042;49.696;10.808;2023-07-20T03:10:14;98190.78;;;17.05;100.00
64080;BME280;51042;49.696;10.808;2023-07-20T03:12:39;98177.69;;;17.05;100.00
64080;BME280;51042;49.696;10.808;2023-07-20T03:15:04;98188.28;;;17.07;100.00
64080;BME280;51042;49.696;10.808;2023-07-20T03:17:30;98190.31;;;17.06;100.00
64080;BME280;51042;49.696;10.808;2023-07-20T03:19:55;98192.31;;;17.06;100.00
64080;BME280;51042;49.696;10.808;2023-07-20T03:22:21;98191.28;;;17.03;100.00
64080;BME280;51042;49.696;10.808;2023-07-20T03:24:47;98191.75;;;17.02;100.00
64080;BME280;51042;49.696;10.808;2023-07-20T03:27:12;98199.78;;;17.00;100.00
64080;BME280;51042;49.696;10.808;2023-07-20T03:29:38;98193.97;;;16.98;100.00
64080;BME280;51042;49.696;10.808;2023-07-20T03:32:03;98212.41;;;17.01;100.00
64080;BME280;51042;49.696;10.808;2023-07-20T03:34:28;98204.38;;;17.03;100.00
64080;BME280;51042;49.696;10.808;2023-07-20T03:36:54;98211.09;;;16.96;100.00
64080;BME280;51042;49.696;10.808;2023-07-20T03:39:19;98199.22;;;16.96;100.00
64080;BME280;51042;49.696;10.808;2023-07-20T03:41:44;98208.78;;;16.95;100.00
64080;BME280;51042;49.696;10.808;2023-07-20T03:44:10;98205.72;;;16.93;100.00
64080;BME280;51042;49.696;10.808;2023-07-20T03:46:35;98214.56;;;16.91;100.00
64080;BME280;51042;49.696;10.808;2023-07-20T03:49:00;98218.56;;;16.90;100.00
64080;BME280;51042;49.696;10.808;2023-07-20T03:51:26;98215.72;;;16.85;100.00
64080;BME280;51042;49.696;10.808;2023-07-20T03:53:51;98211.88;;;16.82;100.00
64080;BME280;51042;49.696;10.808;2023-07-20T03:56:17;98222.97;;;16.82;100.00
64080;BME280;51042;49.696;10.808;2023-07-20T03:58:42;98228.03;;;16.84;100.00
64080;BME280;51042;49.696;10.808;2023-07-20T04:01:07;98232.13;;;16.88;100.00
64080;BME280;51042;49.696;10.808;2023-07-20T04:03:34;98230.69;;;16.93;100.00
64080;BME280;51042;49.696;10.808;2023-07-20T04:06:00;98234.78;;;16.97;100.00
64080;BME280;51042;49.696;10.808;2023-07-20T04:08:26;98240.97;;;17.07;100.00
64080;BME280;51042;49.696;10.808;2023-07-20T04:10:51;98244.66;;;17.19;100.00
64080;BME280;51042;49.696;10.808;2023-07-20T04:13:17;98243.50;;;17.25;100.00
64080;BME280;51042;49.696;10.808;2023-07-20T04:15:42;98243.28;;;17.29;100.00
64080;BME280;51042;49.696;10.808;2023-07-20T04:18:08;98240.03;;;17.30;100.00
64080;BME280;51042;49.696;10.808;2023-07-20T04:20:33;98247.03;;;17.26;100.00
64080;BME280;51042;49.696;10.808;2023-07-20T04:22:58;98245.78;;;17.27;100.00
64080;BME280;51042;49.696;10.808;2023-07-20T04:25:24;98248.44;;;17.36;100.00
64080;BME280;51042;49.696;10.808;2023-07-20T04:27:49;98253.56;;;17.43;100.00
64080;BME280;51042;49.696;10.808;2023-07-20T04:30:17;98254.63;;;17.45;100.00
64080;BME280;51042;49.696;10.808;2023-07-20T04:32:45;98253.41;;;17.52;100.00
64080;BME280;51042;49.696;10.808;2023-07-20T04:35:15;98255.53;;;17.57;100.00
64080;BME280;51042;49.696;10.808;2023-07-20T04:37:43;98258.47;;;17.68;100.00
64080;BME280;51042;49.696;10.808;2023-07-20T04:40:11;98254.63;;;17.86;100.00
64080;BME280;51042;49.696;10.808;2023-07-20T04:42:37;98259.88;;;18.04;100.00
64080;BME280;51042;49.696;10.808;2023-07-20T04:45:02;98259.72;;;18.13;100.00
64080;BME280;51042;49.696;10.808;2023-07-20T04:47:28;98265.59;;;18.21;100.00
64080;BME280;51042;49.696;10.808;2023-07-20T04:49:54;98265.91;;;18.80;100.00
64080;BME280;51042;49.696;10.808;2023-07-20T04:52:19;98266.09;;;19.08;100.00
64080;BME280;51042;49.696;10.808;2023-07-20T04:54:44;98256.16;;;18.96;100.00
64080;BME280;51042;49.696;10.808;2023-07-20T04:57:10;98258.00;;;19.04;100.00
64080;BME280;51042;49.696;10.808;2023-07-20T04:59:36;98274.16;;;19.00;100.00
64080;BME280;51042;49.696;10.808;2023-07-20T05:02:02;98265.16;;;18.80;100.00
64080;BME280;51042;49.696;10.808;2023-07-20T05:04:27;98266.56;;;19.01;100.00
64080;BME280;51042;49.696;10.808;2023-07-20T05:06:52;98276.09;;;20.55;100.00
64080;BME280;51042;49.696;10.808;2023-07-20T05:09:18;98270.09;;;22.69;83.37
64080;BME280;51042;49.696;10.808;2023-07-20T05:11:43;98270.19;;;24.28;72.54
64080;BME280;51042;49.696;10.808;2023-07-20T05:14:10;98269.22;;;25.34;68.13
64080;BME280;51042;49.696;10.808;2023-07-20T05:16:35;98280.56;;;26.08;63.98
64080;BME280;51042;49.696;10.808;2023-07-20T05:19:00;98272.25;;;26.15;62.90
64080;BME280;51042;49.696;10.808;2023-07-20T05:21:26;98277.84;;;26.28;62.55
64080;BME280;51042;49.696;10.808;2023-07-20T05:23:51;98273.84;;;26.58;61.89
64080;BME280;51042;49.696;10.808;2023-07-20T05:26:16;98278.03;;;26.98;58.97
64080;BME280;51042;49.696;10.808;2023-07-20T05:28:41;98274.34;;;27.60;57.52
64080;BME280;51042;49.696;10.808;2023-07-20T05:31:07;98275.78;;;28.18;55.93
64080;BME280;51042;49.696;10.808;2023-07-20T05:33:32;98280.31;;;27.85;55.46
64080;BME280;51042;49.696;10.808;2023-07-20T05:35:57;98276.94;;;28.22;54.90
64080;BME280;51042;49.696;10.808;2023-07-20T05:38:23;98271.94;;;28.51;53.58
64080;BME280;51042;49.696;10.808;2023-07-20T05:40:48;98272.66;;;28.00;54.29
64080;BME280;51042;49.696;10.808;2023-07-20T05:43:13;98271.22;;;28.66;53.13
64080;BME280;51042;49.696;10.808;2023-07-20T05:45:42;98272.00;;;28.97;51.84
64080;BME280;51042;49.696;10.808;2023-07-20T05:48:09;98270.69;;;29.20;51.37
64080;BME280;51042;49.696;10.808;2023-07-20T05:50:37;98262.97;;;29.44;50.27
64080;BME280;51042;49.696;10.808;2023-07-20T05:53:03;98266.75;;;29.39;49.63
64080;BME280;51042;49.696;10.808;2023-07-20T05:55:28;98265.56;;;29.65;50.05
64080;BME280;51042;49.696;10.808;2023-07-20T05:57:53;98277.84;;;30.22;48.79
64080;BME280;51042;49.696;10.808;2023-07-20T06:00:20;98277.44;;;30.66;47.65
64080;BME280;51042;49.696;10.808;2023-07-20T06:02:51;98278.25;;;30.11;48.46
64080;BME280;51042;49.696;10.808;2023-07-20T06:05:21;98279.84;;;29.89;48.83
64080;BME280;51042;49.696;10.808;2023-07-20T06:07:47;98278.69;;;30.00;48.38
64080;BME280;51042;49.696;10.808;2023-07-20T06:10:12;98278.34;;;30.36;47.49
64080;BME280;51042;49.696;10.808;2023-07-20T06:12:37;98285.09;;;30.48;45.93
64080;BME280;51042;49.696;10.808;2023-07-20T06:15:03;98280.84;;;28.78;49.79
64080;BME280;51042;49.696;10.808;2023-07-20T06:17:30;98277.59;;;28.66;50.41
64080;BME280;51042;49.696;10.808;2023-07-20T06:19:55;98274.47;;;29.15;49.43
64080;BME280;51042;49.696;10.808;2023-07-20T06:22:20;98274.75;;;29.95;47.99
64080;BME280;51042;49.696;10.808;2023-07-20T06:24:46;98283.28;;;29.73;47.52
64080;BME280;51042;49.696;10.808;2023-07-20T06:27:11;98270.47;;;29.56;48.57
64080;BME280;51042;49.696;10.808;2023-07-20T06:29:37;98268.16;;;30.33;46.77
64080;BME280;51042;49.696;10.808;2023-07-20T06:32:03;98263.34;;;30.83;45.30
64080;BME280;51042;49.696;10.808;2023-07-20T06:34:28;98267.88;;;29.43;44.88
64080;BME280;51042;49.696;10.808;2023-07-20T06:36:54;98268.19;;;29.62;44.58
64080;BME280;51042;49.696;10.808;2023-07-20T06:39:20;98255.44;;;29.46;44.33
64080;BME280;51042;49.696;10.808;2023-07-20T06:41:46;98256.06;;;28.33;45.24
64080;BME280;51042;49.696;10.808;2023-07-20T06:44:11;98265.72;;;28.01;46.66
64080;BME280;51042;49.696;10.808;2023-07-20T06:46:37;98260.16;;;28.17;46.42
64080;BME280;51042;49.696;10.808;2023-07-20T06:49:02;98266.19;;;27.00;48.40
64080;BME280;51042;49.696;10.808;2023-07-20T06:51:31;98264.00;;;24.99;52.43
64080;BME280;51042;49.696;10.808;2023-07-20T06:53:56;98262.94;;;23.76;54.73
64080;BME280;51042;49.696;10.808;2023-07-20T06:56:21;98262.97;;;22.68;57.83
64080;BME280;51042;49.696;10.808;2023-07-20T06:58:46;98259.59;;;22.45;59.21
64080;BME280;51042;49.696;10.808;2023-07-20T07:01:12;98262.00;;;22.24;61.21
64080;BME280;51042;49.696;10.808;2023-07-20T07:03:37;98263.72;;;22.33;60.22
64080;BME280;51042;49.696;10.808;2023-07-20T07:06:02;98262.94;;;22.38;60.64
64080;BME280;51042;49.696;10.808;2023-07-20T07:08:28;98267.34;;;22.22;60.43
64080;BME280;51042;49.696;10.808;2023-07-20T07:10:53;98258.75;;;22.15;60.78
64080;BME280;51042;49.696;10.808;2023-07-20T07:13:19;98264.03;;;22.24;59.63
64080;BME280;51042;49.696;10.808;2023-07-20T07:15:44;98258.25;;;22.11;60.67
64080;BME280;51042;49.696;10.808;2023-07-20T07:18:10;98257.53;;;22.10;59.51
64080;BME280;51042;49.696;10.808;2023-07-20T07:20:35;98263.13;;;21.99;59.71
64080;BME280;51042;49.696;10.808;2023-07-20T07:23:01;98261.50;;;22.20;59.03
64080;BME280;51042;49.696;10.808;2023-07-20T07:25:26;98257.88;;;22.66;57.30
64080;BME280;51042;49.696;10.808;2023-07-20T07:27:52;98251.06;;;22.62;57.68
64080;BME280;51042;49.696;10.808;2023-07-20T07:30:18;98255.06;;;22.72;56.65
64080;BME280;51042;49.696;10.808;2023-07-20T07:32:44;98254.09;;;22.99;54.37
64080;BME280;51042;49.696;10.808;2023-07-20T07:35:10;98253.13;;;22.56;57.32
64080;BME280;51042;49.696;10.808;2023-07-20T07:37:35;98249.97;;;22.76;56.70
64080;BME280;51042;49.696;10.808;2023-07-20T07:40:01;98248.78;;;23.20;56.02
64080;BME280;51042;49.696;10.808;2023-07-20T07:42:28;98251.22;;;23.05;55.46
64080;BME280;51042;49.696;10.808;2023-07-20T07:44:54;98261.47;;;22.26;57.17
64080;BME280;51042;49.696;10.808;2023-07-20T07:47:19;98259.72;;;22.23;57.91
64080;BME280;51042;49.696;10.808;2023-07-20T07:49:44;98256.75;;;22.51;57.17
64080;BME280;51042;49.696;10.808;2023-07-20T07:52:10;98255.28;;;22.79;56.04
64080;BME280;51042;49.696;10.808;2023-07-20T07:54:35;98260.66;;;23.02;55.22
64080;BME280;51042;49.696;10.808;2023-07-20T07:57:00;98262.31;;;23.40;54.49
64080;BME280;51042;49.696;10.808;2023-07-20T07:59:26;98249.41;;;23.07;53.96
64080;BME280;51042;49.696;10.808;2023-07-20T08:01:51;98260.56;;;22.83;53.72
64080;BME280;51042;49.696;10.808;2023-07-20T08:04:17;98262.19;;;22.67;54.34
64080;BME280;51042;49.696;10.808;2023-07-20T08:06:42;98259.63;;;22.75;54.02
64080;BME280;51042;49.696;10.808;2023-07-20T08:09:08;98252.31;;;22.96;54.77
64080;BME280;51042;49.696;10.808;2023-07-20T08:11:33;98261.81;;;22.88;55.27
64080;BME280;51042;49.696;10.808;2023-07-20T08:13:59;98262.00;;;23.19;54.86
64080;BME280;51042;49.696;10.808;2023-07-20T08:16:25;98264.50;;;22.99;53.57
64080;BME280;51042;49.696;10.808;2023-07-20T08:18:50;98264.63;;;22.82;53.43
64080;BME280;51042;49.696;10.808;2023-07-20T08:21:16;98251.22;;;23.05;53.75
64080;BME280;51042;49.696;10.808;2023-07-20T08:23:41;98252.03;;;22.70;54.59
64080;BME280;51042;49.696;10.808;2023-07-20T08:26:06;98270.94;;;22.88;53.25
64080;BME280;51042;49.696;10.808;2023-07-20T08:28:32;98256.94;;;23.18;52.64
64080;BME280;51042;49.696;10.808;2023-07-20T08:30:57;98257.41;;;23.71;51.80
64080;BME280;51042;49.696;10.808;2023-07-20T08:33:22;98252.13;;;24.05;51.21
64080;BME280;51042;49.696;10.808;2023-07-20T08:36:01;98257.41;;;23.89;51.80
64080;BME280;51042;49.696;10.808;2023-07-20T08:38:28;98259.47;;;23.89;51.02
64080;BME280;51042;49.696;10.808;2023-07-20T08:40:53;98265.94;;;24.21;50.47
64080;BME280;51042;49.696;10.808;2023-07-20T08:43:21;98262.13;;;24.00;50.56
64080;BME280;51042;49.696;10.808;2023-07-20T08:45:49;98260.75;;;24.44;49.63
64080;BME280;51042;49.696;10.808;2023-07-20T08:48:16;98261.09;;;24.40;49.09
64080;BME280;51042;49.696;10.808;2023-07-20T08:50:43;98270.19;;;24.28;49.07
64080;BME280;51042;49.696;10.808;2023-07-20T08:53:10;98259.09;;;23.98;50.03
64080;BME280;51042;49.696;10.808;2023-07-20T08:55:38;98262.19;;;23.76;49.45
64080;BME280;51042;49.696;10.808;2023-07-20T08:58:27;98264.41;;;23.34;51.10
64080;BME280;51042;49.696;10.808;2023-07-20T09:00:53;98259.22;;;23.44;50.91
64080;BME280;51042;49.696;10.808;2023-07-20T09:03:19;98257.06;;;23.98;48.20
64080;BME280;51042;49.696;10.808;2023-07-20T09:05:45;98261.97;;;24.11;48.27
64080;BME280;51042;49.696;10.808;2023-07-20T09:08:10;98264.59;;;23.66;47.60
64080;BME280;51042;49.696;10.808;2023-07-20T09:10:36;98261.91;;;23.98;48.07
64080;BME280;51042;49.696;10.808;2023-07-20T09:13:01;98256.22;;;24.41;47.56
64080;BME280;51042;49.696;10.808;2023-07-20T09:15:29;98256.59;;;24.83;47.11
64080;BME280;51042;49.696;10.808;2023-07-20T09:17:55;98264.03;;;24.80;46.96
64080;BME280;51042;49.696;10.808;2023-07-20T09:20:20;98267.03;;;24.18;49.05
64080;BME280;51042;49.696;10.808;2023-07-20T09:22:46;98262.56;;;23.85;50.40
64080;BME280;51042;49.696;10.808;2023-07-20T09:25:15;98265.47;;;24.17;50.24
64080;BME280;51042;49.696;10.808;2023-07-20T09:27:45;98260.47;;;24.79;47.54
64080;BME280;51042;49.696;10.808;2023-07-20T09:30:13;98253.13;;;25.21;45.54
64080;BME280;51042;49.696;10.808;2023-07-20T09:32:41;98251.72;;;25.28;46.07
64080;BME280;51042;49.696;10.808;2023-07-20T09:35:19;98252.72;;;25.31;45.99
64080;BME280;51042;49.696;10.808;2023-07-20T09:37:49;98260.78;;;25.08;46.79
64080;BME280;51042;49.696;10.808;2023-07-20T09:40:17;98257.06;;;25.58;46.02
64080;BME280;51042;49.696;10.808;2023-07-20T09:42:43;98250.94;;;26.07;44.74
64080;BME280;51042;49.696;10.808;2023-07-20T09:45:08;98247.97;;;25.78;44.55
64080;BME280;51042;49.696;10.808;2023-07-20T09:47:35;98256.81;;;25.95;44.53
64080;BME280;51042;49.696;10.808;2023-07-20T09:50:02;98251.16;;;26.42;43.54
64080;BME280;51042;49.696;10.808;2023-07-20T09:52:31;98255.91;;;26.14;44.16
64080;BME280;51042;49.696;10.808;2023-07-20T09:54:57;98256.25;;;25.97;43.62
64080;BME280;51042;49.696;10.808;2023-07-20T09:57:23;98258.13;;;26.62;41.67
64080;BME280;51042;49.696;10.808;2023-07-20T09:59:49;98247.06;;;26.85;41.02
64080;BME280;51042;49.696;10.808;2023-07-20T10:02:23;98252.28;;;26.60;42.45
64080;BME280;51042;49.696;10.808;2023-07-20T10:04:56;98244.97;;;26.99;42.60
64080;BME280;51042;49.696;10.808;2023-07-20T10:07:29;98253.63;;;26.46;42.63
64080;BME280;51042;49.696;10.808;2023-07-20T10:09:56;98245.81;;;25.58;43.49
64080;BME280;51042;49.696;10.808;2023-07-20T10:12:26;98254.66;;;25.49;43.17
64080;BME280;51042;49.696;10.808;2023-07-20T10:14:56;98247.44;;;26.27;42.54
64080;BME280;51042;49.696;10.808;2023-07-20T10:17:33;98253.50;;;26.31;42.49
64080;BME280;51042;49.696;10.808;2023-07-20T10:20:02;98252.34;;;26.47;42.73
64080;BME280;51042;49.696;10.808;2023-07-20T10:22:30;98253.63;;;26.12;43.43
64080;BME280;51042;49.696;10.808;2023-07-20T10:24:59;98254.38;;;26.26;42.72
64080;BME280;51042;49.696;10.808;2023-07-20T10:27:25;98242.25;;;25.57;42.92
64080;BME280;51042;49.696;10.808;2023-07-20T10:29:57;98246.56;;;25.32;43.96
64080;BME280;51042;49.696;10.808;2023-07-20T10:32:24;98247.56;;;25.61;43.93
64080;BME280;51042;49.696;10.808;2023-07-20T10:34:52;98239.19;;;25.69;43.60
64080;BME280;51042;49.696;10.808;2023-07-20T10:40:27;98233.75;;;26.44;42.26
64080;BME280;51042;49.696;10.808;2023-07-20T10:43:00;98223.03;;;26.42;42.69
64080;BME280;51042;49.696;10.808;2023-07-20T10:45:33;98239.38;;;26.65;42.86
64080;BME280;51042;49.696;10.808;2023-07-20T10:48:04;98233.19;;;26.66;42.50
64080;BME280;51042;49.696;10.808;2023-07-20T10:50:31;98235.34;;;26.94;41.62
64080;BME280;51042;49.696;10.808;2023-07-20T10:53:09;98231.63;;;26.99;40.97
64080;BME280;51042;49.696;10.808;2023-07-20T10:55:36;98231.03;;;27.21;40.73
64080;BME280;51042;49.696;10.808;2023-07-20T10:58:08;98219.59;;;26.78;40.85
64080;BME280;51042;49.696;10.808;2023-07-20T11:00:35;98227.28;;;26.36;41.95
64080;BME280;51042;49.696;10.808;2023-07-20T11:03:00;98225.03;;;26.55;41.33
64080;BME280;51042;49.696;10.808;2023-07-20T11:05:32;98218.22;;;26.71;42.08
64080;BME280;51042;49.696;10.808;2023-07-20T11:08:00;98218.75;;;27.11;42.26
64080;BME280;51042;49.696;10.808;2023-07-20T11:10:25;98214.56;;;27.61;41.29
64080;BME280;51042;49.696;10.808;2023-07-20T11:15:46;98205.13;;;27.95;41.13
64080;BME280;51042;49.696;10.808;2023-07-20T11:18:13;98207.09;;;28.15;40.26
64080;BME280;51042;49.696;10.808;2023-07-20T11:20:39;98206.28;;;28.07;39.29
64080;BME280;51042;49.696;10.808;2023-07-20T11:23:05;98201.41;;;28.08;38.06
64080;BME280;51042;49.696;10.808;2023-07-20T11:25:38;98196.69;;;27.59;39.08
64080;BME280;51042;49.696;10.808;2023-07-20T11:28:06;98210.06;;;26.81;39.52
64080;BME280;51042;49.696;10.808;2023-07-20T11:30:33;98207.13;;;26.45;40.71
64080;BME280;51042;49.696;10.808;2023-07-20T11:32:59;98202.63;;;26.29;41.78
64080;BME280;51042;49.696;10.808;2023-07-20T11:35:24;98195.50;;;26.49;41.92
64080;BME280;51042;49.696;10.808;2023-07-20T11:37:49;98199.53;;;26.81;41.78
64080;BME280;51042;49.696;10.808;2023-07-20T11:40:15;98203.06;;;26.95;42.09
64080;BME280;51042;49.696;10.808;2023-07-20T11:42:40;98198.72;;;26.53;42.32
64080;BME280;51042;49.696;10.808;2023-07-20T11:45:06;98198.75;;;26.19;42.52
64080;BME280;51042;49.696;10.808;2023-07-20T11:47:31;98199.25;;;25.96;42.80
64080;BME280;51042;49.696;10.808;2023-07-20T11:49:58;98196.50;;;26.04;42.69
64080;BME280;51042;49.696;10.808;2023-07-20T11:52:28;98190.94;;;25.91;41.64
64080;BME280;51042;49.696;10.808;2023-07-20T11:54:53;98187.63;;;25.79;42.01
64080;BME280;51042;49.696;10.808;2023-07-20T11:57:19;98188.50;;;26.63;40.97
64080;BME280;51042;49.696;10.808;2023-07-20T11:59:55;98195.81;;;27.07;38.63
64080;BME280;51042;49.696;10.808;2023-07-20T12:02:26;98190.94;;;27.72;38.91
64080;BME280;51042;49.696;10.808;2023-07-20T12:04:52;98174.84;;;27.88;38.95
64080;BME280;51042;49.696;10.808;2023-07-20T12:07:19;98176.78;;;27.57;39.67
64080;BME280;51042;49.696;10.808;2023-07-20T12:09:44;98181.00;;;26.86;39.52
64080;BME280;51042;49.696;10.808;2023-07-20T12:12:10;98180.28;;;26.44;40.91
64080;BME280;51042;49.696;10.808;2023-07-20T12:14:38;98181.78;;;26.45;41.31
64080;BME280;51042;49.696;10.808;2023-07-20T12:17:04;98185.09;;;26.23;41.80
64080;BME280;51042;49.696;10.808;2023-07-20T12:19:32;98172.72;;;26.39;40.27
64080;BME280;51042;49.696;10.808;2023-07-20T12:22:03;98178.19;;;26.86;40.13
64080;BME280;51042;49.696;10.808;2023-07-20T12:24:28;98180.03;;;27.04;38.66
64080;BME280;51042;49.696;10.808;2023-07-20T12:26:57;98169.66;;;27.28;38.57
64080;BME280;51042;49.696;10.808;2023-07-20T12:29:23;98161.81;;;27.77;37.54
64080;BME280;51042;49.696;10.808;2023-07-20T12:31:48;98163.69;;;27.75;34.57
64080;BME280;51042;49.696;10.808;2023-07-20T12:34:14;98165.63;;;27.15;35.61
64080;BME280;51042;49.696;10.808;2023-07-20T12:36:40;98162.28;;;27.53;35.63
64080;BME280;51042;49.696;10.808;2023-07-20T12:39:05;98164.34;;;27.24;37.39
64080;BME280;51042;49.696;10.808;2023-07-20T12:41:30;98168.75;;;26.83;38.65
64080;BME280;51042;49.696;10.808;2023-07-20T12:43:56;98163.22;;;26.29;39.23
64080;BME280;51042;49.696;10.808;2023-07-20T12:46:22;98161.81;;;26.56;39.67
64080;BME280;51042;49.696;10.808;2023-07-20T12:48:48;98157.47;;;26.55;38.88
64080;BME280;51042;49.696;10.808;2023-07-20T12:51:13;98163.25;;;26.50;39.41
64080;BME280;51042;49.696;10.808;2023-07-20T12:53:39;98160.06;;;26.53;39.85
64080;BME280;51042;49.696;10.808;2023-07-20T12:56:04;98161.47;;;26.05;40.79